Portada
METAR-TAF:

METAR-TAF

Aeropuertos :

Aeropuerto de Podgorica

Podgorica, Montenegro

latitud: 42-26N, longitud: 019-17E, altitud: 53 m

Observación

El informe se hizo hace 30 minutos, a las 02:30 UTC
Viento 4 kt del norte-noroeste
Temperatura 13°C
Humedad 88%
Presión 1014 hPa
Visibilidad 10 km o más
Nubes dispersas a una altura de 4000 ft
Cielo cubierto a una altura de 9000 ft

METAR: LYPG 010230Z 34004KT 9999 SCT040 OVC090 13/11 Q1014 NOSIG

Hora: 05:00 (03:00 UTC)

Pronóstico

El informe se hizo hace 4 horas y 0 minutos, a las 23:00 UTC
Pronóstico válido del 01 a las 00 UTC al 01 a las 24 UTC
Viento 5 kt del norte
Visibilidad 10 km o más
Escasas nubes a una altura de 4000 ft
Cielo nuboso a una altura de 9000 ft

TAF: LYPG 312300Z 0100/0124 36005KT 9999 FEW040 BKN090 TX24/0113Z TN11/0103Z

Observaciones y pronósticos meteorológicos de más de 4000 aeropuertos (mensajes METAR y TAF).

Los puntos amarillos y rojos representan las estaciones disponibles.

Ponga el ratón en el punto deseado para ver el nombre de la estación.

Haga clic para ver las observaciones y los pronósticos meteorológicos.

Para cambiar el mapa : haga clic en los botones verdes con una cruz de color negro para hacer un zoom, en el botón verde con un guión para alejar o en las flechas verdes para mapas adyacentes.


METAR-TAF: